createdAt,value
2019-03-27T00:00:55.845Z,6.33
2019-03-27T00:03:25.289Z,6.17
2019-03-27T00:05:54.722Z,6.10
2019-03-27T00:08:24.227Z,5.50
2019-03-27T00:10:53.657Z,6.43
2019-03-27T00:13:23.155Z,6.43
2019-03-27T00:15:52.581Z,5.47
2019-03-27T00:18:22.033Z,5.83
2019-03-27T00:20:51.452Z,6.20
2019-03-27T00:23:20.877Z,5.80
2019-03-27T00:25:51.853Z,6.73
2019-03-27T00:28:21.271Z,7.30
2019-03-27T00:30:50.711Z,7.73
2019-03-27T00:33:20.210Z,6.50
2019-03-27T00:35:49.727Z,7.40
2019-03-27T00:38:19.214Z,6.60
2019-03-27T00:40:48.645Z,7.83
2019-03-27T00:43:18.087Z,6.90
2019-03-27T00:45:47.581Z,7.23
2019-03-27T00:48:17.023Z,7.73
2019-03-27T00:50:47.511Z,7.27
2019-03-27T00:53:16.951Z,8.03
2019-03-27T00:55:46.449Z,7.97
2019-03-27T00:58:15.907Z,7.77
2019-03-27T01:00:48.389Z,7.30
2019-03-27T01:03:17.822Z,8.90
2019-03-27T01:05:47.232Z,7.80
2019-03-27T01:08:16.677Z,7.67
2019-03-27T01:10:46.097Z,8.27
2019-03-27T01:13:15.541Z,9.00
2019-03-27T01:15:45.028Z,8.20
2019-03-27T01:18:14.465Z,9.00
2019-03-27T01:20:44.377Z,8.87
2019-03-27T01:23:13.764Z,9.10
2019-03-27T01:25:43.196Z,8.33
2019-03-27T01:28:12.618Z,8.77
2019-03-27T01:30:42.128Z,8.60
2019-03-27T01:33:11.542Z,8.73
2019-03-27T01:35:40.986Z,8.40
2019-03-27T01:38:10.410Z,9.37
2019-03-27T01:40:39.848Z,9.07
2019-03-27T01:43:09.291Z,9.27
2019-03-27T01:45:52.134Z,8.80
2019-03-27T01:48:09.908Z,9.07
2019-03-27T01:50:39.364Z,9.73
2019-03-27T01:53:08.802Z,8.80
2019-03-27T01:55:38.580Z,9.13
2019-03-27T01:58:08.100Z,9.13
2019-03-27T02:00:37.582Z,9.70
2019-03-27T02:03:07.096Z,8.50
2019-03-27T02:05:36.504Z,9.67
2019-03-27T02:08:06.002Z,9.43
2019-03-27T02:10:35.639Z,10.23
2019-03-27T02:13:05.134Z,9.20
2019-03-27T02:15:34.561Z,8.90
2019-03-27T02:18:04.082Z,9.17
2019-03-27T02:20:36.352Z,10.93
2019-03-27T02:23:05.806Z,10.27
2019-03-27T02:25:35.207Z,9.87
2019-03-27T02:28:04.803Z,10.53
2019-03-27T02:30:34.320Z,9.67
2019-03-27T02:33:03.893Z,9.30
2019-03-27T02:35:33.309Z,10.10
2019-03-27T02:38:02.756Z,10.20
2019-03-27T02:40:32.280Z,9.97
2019-03-27T02:43:01.719Z,9.83
2019-03-27T02:45:31.222Z,9.93
2019-03-27T02:48:00.647Z,10.50
2019-03-27T02:50:30.088Z,9.83
2019-03-27T02:52:59.517Z,10.70
2019-03-27T02:55:28.968Z,10.70
2019-03-27T02:57:58.397Z,9.97
2019-03-27T03:00:27.977Z,10.97
2019-03-27T03:02:57.434Z,10.70
2019-03-27T03:05:26.890Z,11.27
2019-03-27T03:07:56.304Z,10.47
2019-03-27T03:10:25.814Z,10.27
2019-03-27T03:12:56.204Z,11.13
2019-03-27T03:15:25.787Z,10.80
2019-03-27T03:17:55.274Z,10.43
2019-03-27T03:20:24.722Z,11.97
2019-03-27T03:22:54.134Z,11.30
2019-03-27T03:25:23.569Z,11.37
2019-03-27T03:27:52.995Z,10.83
2019-03-27T03:30:22.502Z,11.03
2019-03-27T03:32:51.930Z,11.33
2019-03-27T03:35:21.535Z,12.00
2019-03-27T03:37:51.017Z,11.57
2019-03-27T03:40:20.597Z,11.30
2019-03-27T03:42:50.111Z,11.23
2019-03-27T03:45:19.937Z,11.40
2019-03-27T03:47:49.400Z,12.00
2019-03-27T03:50:27.728Z,13.10
2019-03-27T03:52:57.511Z,11.77
2019-03-27T03:55:27.577Z,13.40
2019-03-27T03:57:57.838Z,12.57
2019-03-27T04:00:27.497Z,13.27
2019-03-27T04:02:57.902Z,12.67
2019-03-27T04:05:27.326Z,13.67
2019-03-27T04:07:56.856Z,13.77
2019-03-27T04:10:26.257Z,12.43
2019-03-27T04:12:55.698Z,14.67
2019-03-27T04:15:25.122Z,14.47
2019-03-27T04:17:54.566Z,14.20
2019-03-27T04:20:24.000Z,15.93
2019-03-27T04:22:53.443Z,14.90
2019-03-27T04:25:22.853Z,15.23
2019-03-27T04:27:52.300Z,14.97
2019-03-27T04:30:21.738Z,16.60
2019-03-27T04:32:51.159Z,16.20
2019-03-27T04:35:20.687Z,17.03
2019-03-27T04:37:50.096Z,16.50
2019-03-27T04:40:19.661Z,17.43
2019-03-27T04:42:49.152Z,17.77
2019-03-27T04:45:18.709Z,17.27
2019-03-27T04:47:48.157Z,16.37
2019-03-27T04:50:17.606Z,17.93
2019-03-27T04:52:47.023Z,18.53
2019-03-27T04:55:16.475Z,17.87
2019-03-27T04:57:45.885Z,17.03
2019-03-27T05:00:15.773Z,18.00
2019-03-27T05:02:45.197Z,18.33
2019-03-27T05:05:15.170Z,19.13
2019-03-27T05:07:44.592Z,18.47
2019-03-27T05:10:14.104Z,18.87
2019-03-27T05:12:43.559Z,19.80
2019-03-27T05:15:13.122Z,19.03
2019-03-27T05:17:46.299Z,19.13
2019-03-27T05:20:13.897Z,20.07
2019-03-27T05:22:43.485Z,19.90
2019-03-27T05:25:12.975Z,22.50
2019-03-27T05:27:43.659Z,20.83
2019-03-27T05:30:13.333Z,20.73
2019-03-27T05:32:44.435Z,22.53
2019-03-27T05:35:13.950Z,21.33
2019-03-27T05:37:43.403Z,21.40
2019-03-27T05:40:15.527Z,21.90
2019-03-27T05:42:44.970Z,21.33
2019-03-27T05:45:14.465Z,23.10
2019-03-27T05:47:43.910Z,22.93
2019-03-27T05:50:13.472Z,22.27
2019-03-27T05:52:42.939Z,24.17
2019-03-27T05:55:12.425Z,22.47
2019-03-27T05:57:41.874Z,23.33
2019-03-27T06:00:12.707Z,24.00
2019-03-27T06:02:43.226Z,22.23
2019-03-27T06:05:12.681Z,24.37
2019-03-27T06:07:42.113Z,25.83
2019-03-27T06:10:12.004Z,24.60
2019-03-27T06:12:41.521Z,24.67
2019-03-27T06:15:11.155Z,23.93
2019-03-27T06:17:40.553Z,24.23
2019-03-27T06:20:10.244Z,23.13
2019-03-27T06:22:39.668Z,23.90
2019-03-27T06:25:09.361Z,24.87
2019-03-27T06:27:38.789Z,23.37
2019-03-27T06:30:08.756Z,22.83
2019-03-27T06:32:38.342Z,24.80
2019-03-27T06:35:08.204Z,23.77
2019-03-27T06:37:37.655Z,25.30
2019-03-27T06:40:08.225Z,24.90
2019-03-27T06:42:37.729Z,24.50
2019-03-27T06:45:07.793Z,24.20
2019-03-27T06:47:37.808Z,22.37
2019-03-27T06:50:08.080Z,22.57
2019-03-27T06:52:37.524Z,21.53
2019-03-27T06:55:07.994Z,23.30
2019-03-27T06:57:37.461Z,20.93
2019-03-27T07:00:08.800Z,22.20
2019-03-27T07:02:38.324Z,21.60
2019-03-27T07:05:08.082Z,21.57
2019-03-27T07:07:38.673Z,22.53
2019-03-27T07:10:08.632Z,21.53
2019-03-27T07:12:38.089Z,20.77
2019-03-27T07:15:07.849Z,21.80
2019-03-27T07:17:37.359Z,21.90
2019-03-27T07:20:10.056Z,23.13
2019-03-27T07:22:39.478Z,21.50
2019-03-27T07:25:09.067Z,20.30
2019-03-27T07:27:38.523Z,21.40
2019-03-27T07:30:09.799Z,22.20
2019-03-27T07:32:39.383Z,19.93
2019-03-27T07:35:08.950Z,18.57
2019-03-27T07:37:38.443Z,19.47
2019-03-27T07:40:08.243Z,19.03
2019-03-27T07:42:37.657Z,18.47
2019-03-27T07:45:12.751Z,20.27
2019-03-27T07:47:42.339Z,19.03
2019-03-27T07:50:12.113Z,16.77
2019-03-27T07:52:41.569Z,16.37
2019-03-27T07:55:19.193Z,16.57
2019-03-27T07:57:42.340Z,15.57
2019-03-27T08:00:15.333Z,16.03
2019-03-27T08:02:44.851Z,16.30
2019-03-27T08:05:14.409Z,15.70
2019-03-27T08:07:43.843Z,15.27
2019-03-27T08:10:13.610Z,13.07
2019-03-27T08:12:43.180Z,12.80
2019-03-27T08:15:14.206Z,13.97
2019-03-27T08:17:43.656Z,13.67
2019-03-27T08:20:14.664Z,12.43
2019-03-27T08:22:44.170Z,11.97
2019-03-27T08:25:13.856Z,11.33
2019-03-27T08:27:43.364Z,13.17
2019-03-27T08:30:14.744Z,13.63
2019-03-27T08:32:44.165Z,12.33
2019-03-27T08:35:13.919Z,11.20
2019-03-27T08:37:43.345Z,10.07
2019-03-27T08:40:13.696Z,10.57
2019-03-27T08:42:43.108Z,9.93
2019-03-27T08:45:12.885Z,10.07
2019-03-27T08:47:42.435Z,9.83
2019-03-27T08:50:12.730Z,10.47
2019-03-27T08:52:42.231Z,9.33
2019-03-27T08:55:13.759Z,8.90
2019-03-27T08:57:43.549Z,9.80
2019-03-27T09:00:14.705Z,9.60
2019-03-27T09:02:44.204Z,10.57
2019-03-27T09:05:14.260Z,9.17
2019-03-27T09:07:46.762Z,8.63
2019-03-27T09:10:16.367Z,9.27
2019-03-27T09:12:45.793Z,9.10
2019-03-27T09:15:15.372Z,9.20
2019-03-27T09:17:44.861Z,8.73
2019-03-27T09:20:14.643Z,8.43
2019-03-27T09:22:44.083Z,9.17
2019-03-27T09:25:13.645Z,8.73
2019-03-27T09:27:43.097Z,8.70
2019-03-27T09:30:13.475Z,8.43
2019-03-27T09:32:42.893Z,8.63
2019-03-27T09:35:13.280Z,7.90
2019-03-27T09:37:43.265Z,7.77
2019-03-27T09:40:13.118Z,6.93
2019-03-27T09:42:42.552Z,7.40
2019-03-27T09:45:20.171Z,7.40
2019-03-27T09:47:58.804Z,7.07
2019-03-27T09:50:33.144Z,7.30
2019-03-27T09:53:10.209Z,7.47
2019-03-27T09:55:46.216Z,7.47
2019-03-27T09:58:15.776Z,7.70
2019-03-27T10:00:51.404Z,6.87
2019-03-27T10:03:20.856Z,6.83
2019-03-27T10:05:50.435Z,6.20
2019-03-27T10:08:19.930Z,6.27
2019-03-27T10:10:50.523Z,7.10
2019-03-27T10:13:20.209Z,7.33
2019-03-27T10:15:49.660Z,5.30
2019-03-27T10:18:19.078Z,5.30
2019-03-27T10:20:48.576Z,5.73
2019-03-27T10:23:19.105Z,4.80
2019-03-27T10:25:48.595Z,5.00
2019-03-27T10:28:18.029Z,4.53
2019-03-27T10:30:47.528Z,4.60
2019-03-27T10:33:17.043Z,4.47
2019-03-27T10:35:46.529Z,5.07
2019-03-27T10:38:15.976Z,4.70
2019-03-27T10:40:45.562Z,4.50
2019-03-27T10:43:14.998Z,4.93
2019-03-27T10:45:44.554Z,4.97
2019-03-27T10:48:13.998Z,4.60
2019-03-27T10:50:43.412Z,4.37
2019-03-27T10:53:13.989Z,4.53
2019-03-27T10:55:43.388Z,4.00
2019-03-27T10:58:12.854Z,5.40
2019-03-27T11:00:42.286Z,6.00
2019-03-27T11:03:12.142Z,5.30
2019-03-27T11:05:41.633Z,7.60
2019-03-27T11:08:11.697Z,5.17
2019-03-27T11:10:42.099Z,4.37
2019-03-27T11:13:11.525Z,4.10
2019-03-27T11:15:40.970Z,5.30
2019-03-27T11:18:10.396Z,6.63
2019-03-27T11:20:39.907Z,5.50
2019-03-27T11:23:09.395Z,5.20
2019-03-27T11:25:38.845Z,5.03
2019-03-27T11:28:08.256Z,4.43
2019-03-27T11:30:38.743Z,4.73
2019-03-27T11:33:11.330Z,4.33
2019-03-27T11:35:40.903Z,4.20
2019-03-27T11:38:10.456Z,4.97
2019-03-27T11:40:43.489Z,6.13
2019-03-27T11:43:14.439Z,4.20
2019-03-27T11:45:43.929Z,3.97
2019-03-27T11:48:13.459Z,3.73
2019-03-27T11:50:45.051Z,3.70
2019-03-27T11:53:14.082Z,3.13
2019-03-27T11:55:43.705Z,3.57
2019-03-27T11:58:14.897Z,3.40
2019-03-27T12:00:54.260Z,3.93
2019-03-27T12:03:15.671Z,3.50
2019-03-27T12:05:47.940Z,3.67
2019-03-27T12:08:17.457Z,4.93
2019-03-27T12:10:48.457Z,3.13
2019-03-27T12:13:17.902Z,3.17
2019-03-27T12:15:47.486Z,3.23
2019-03-27T12:18:17.618Z,3.53
2019-03-27T12:20:58.162Z,2.73
2019-03-27T12:23:18.279Z,2.20
2019-03-27T12:25:48.746Z,2.43
2019-03-27T12:28:18.170Z,1.90
2019-03-27T12:30:47.665Z,1.50
2019-03-27T12:33:17.109Z,1.83
2019-03-27T12:35:46.615Z,1.63
2019-03-27T12:38:16.073Z,1.60
2019-03-27T12:40:45.632Z,1.70
2019-03-27T12:43:15.085Z,2.20
2019-03-27T12:45:44.564Z,2.30
2019-03-27T12:48:14.305Z,2.17
2019-03-27T12:50:44.532Z,2.00
2019-03-27T12:53:14.104Z,1.77
2019-03-27T12:55:43.754Z,2.03
2019-03-27T12:58:13.285Z,2.30
2019-03-27T13:00:42.915Z,2.10
2019-03-27T13:03:12.526Z,1.80
2019-03-27T13:05:42.034Z,1.60
2019-03-27T13:08:14.154Z,2.00
2019-03-27T13:10:43.649Z,1.77
2019-03-27T13:13:13.208Z,1.93
2019-03-27T13:15:42.765Z,1.67
2019-03-27T13:18:12.379Z,2.73
2019-03-27T13:20:44.398Z,2.00
2019-03-27T13:23:13.950Z,2.10
2019-03-27T13:25:43.433Z,2.30
2019-03-27T13:28:13.018Z,1.60
2019-03-27T13:30:42.531Z,1.63
2019-03-27T13:33:12.055Z,1.80
2019-03-27T13:35:44.359Z,1.47
2019-03-27T13:38:13.864Z,1.77
2019-03-27T13:40:43.424Z,1.60
2019-03-27T13:43:12.887Z,1.33
2019-03-27T13:45:43.436Z,1.50
2019-03-27T13:48:12.922Z,1.53
2019-03-27T13:50:42.530Z,1.20
2019-03-27T13:53:11.985Z,1.47
2019-03-27T13:55:41.486Z,1.37
2019-03-27T13:58:10.921Z,2.17
2019-03-27T14:00:40.493Z,2.00
2019-03-27T14:03:10.031Z,2.30
2019-03-27T14:05:39.518Z,2.10
2019-03-27T14:08:08.957Z,3.10
2019-03-27T14:10:38.552Z,3.07
2019-03-27T14:13:08.045Z,2.63
2019-03-27T14:15:37.543Z,2.33
2019-03-27T14:18:06.966Z,2.57
2019-03-27T14:20:36.613Z,2.27
2019-03-27T14:23:06.106Z,2.90
2019-03-27T14:25:35.562Z,2.50
2019-03-27T14:28:05.251Z,2.40
2019-03-27T14:30:52.217Z,2.63
2019-03-27T14:33:21.879Z,2.73
2019-03-27T14:35:52.380Z,2.93
2019-03-27T14:38:22.026Z,3.17
2019-03-27T14:40:51.521Z,3.17
2019-03-27T14:43:21.120Z,3.33
2019-03-27T14:45:50.664Z,3.73
2019-03-27T14:48:20.211Z,4.10
2019-03-27T14:50:49.713Z,3.73
2019-03-27T14:53:19.256Z,3.93
2019-03-27T14:55:48.806Z,3.67
2019-03-27T14:58:18.333Z,3.60
2019-03-27T15:00:47.989Z,7.53
2019-03-27T15:03:17.480Z,3.40
2019-03-27T15:05:47.070Z,3.47
2019-03-27T15:08:16.580Z,3.87
2019-03-27T15:10:46.359Z,6.07
2019-03-27T15:13:16.147Z,5.87
2019-03-27T15:15:45.754Z,4.63
2019-03-27T15:18:16.205Z,7.43
2019-03-27T15:20:46.696Z,5.57
2019-03-27T15:23:16.192Z,4.47
2019-03-27T15:25:46.174Z,5.57
2019-03-27T15:28:15.744Z,5.70
2019-03-27T15:30:45.430Z,4.30
2019-03-27T15:33:14.878Z,5.20
2019-03-27T15:35:44.806Z,4.73
2019-03-27T15:38:14.358Z,4.43
2019-03-27T15:40:46.178Z,5.00
2019-03-27T15:43:15.735Z,5.73
2019-03-27T15:45:45.459Z,5.23
2019-03-27T15:48:16.124Z,6.37
2019-03-27T15:50:55.597Z,5.33
2019-03-27T15:53:19.676Z,5.90
2019-03-27T15:55:49.320Z,5.73
2019-03-27T15:58:18.920Z,5.33
2019-03-27T16:00:48.557Z,5.73
2019-03-27T16:03:18.173Z,5.97
2019-03-27T16:05:47.771Z,5.73
2019-03-27T16:08:18.381Z,5.97
2019-03-27T16:10:49.361Z,6.10
2019-03-27T16:13:26.278Z,5.27
2019-03-27T16:15:55.776Z,5.63
2019-03-27T16:18:27.453Z,5.50
2019-03-27T16:20:57.070Z,5.30
2019-03-27T16:23:28.195Z,6.17
2019-03-27T16:25:57.827Z,6.00
2019-03-27T16:28:27.408Z,6.30
2019-03-27T16:30:57.043Z,5.93
2019-03-27T16:33:26.612Z,6.20
2019-03-27T16:35:56.326Z,4.97
2019-03-27T16:38:25.848Z,6.03
2019-03-27T16:40:55.436Z,6.43
2019-03-27T16:43:25.004Z,6.57
2019-03-27T16:45:54.669Z,6.73
2019-03-27T16:48:24.328Z,6.30
2019-03-27T16:50:53.884Z,5.93
2019-03-27T16:53:24.467Z,5.30
2019-03-27T16:55:54.077Z,5.10
2019-03-27T16:58:24.608Z,5.90
2019-03-27T17:00:54.223Z,5.70
2019-03-27T17:03:23.781Z,5.53
2019-03-27T17:05:54.529Z,4.97
2019-03-27T17:08:24.118Z,5.10
2019-03-27T17:10:53.545Z,4.90
2019-03-27T17:13:23.326Z,5.10
2019-03-27T17:15:52.758Z,5.13
2019-03-27T17:18:22.285Z,4.50
2019-03-27T17:20:52.013Z,4.47
2019-03-27T17:23:24.169Z,4.87
2019-03-27T17:25:53.769Z,5.17
2019-03-27T17:28:23.400Z,5.53
2019-03-27T17:30:54.414Z,5.47
2019-03-27T17:33:26.364Z,5.93
2019-03-27T17:35:55.957Z,6.73
2019-03-27T17:38:25.520Z,5.97
2019-03-27T17:40:54.933Z,5.77
2019-03-27T17:43:24.568Z,5.37
2019-03-27T17:45:55.002Z,6.20
2019-03-27T17:48:24.890Z,5.47
2019-03-27T17:50:54.366Z,5.63
2019-03-27T17:53:31.716Z,5.90
2019-03-27T17:55:56.953Z,5.20
2019-03-27T17:58:26.282Z,5.47
2019-03-27T18:00:57.662Z,5.30
2019-03-27T18:03:27.174Z,5.83
2019-03-27T18:05:56.588Z,6.57
2019-03-27T18:08:26.040Z,6.10
2019-03-27T18:10:57.057Z,6.50
2019-03-27T18:13:28.348Z,6.90
2019-03-27T18:15:59.942Z,5.93
2019-03-27T18:18:29.370Z,5.27
2019-03-27T18:20:59.291Z,6.10
2019-03-27T18:23:28.743Z,5.80
2019-03-27T18:25:58.258Z,5.50
2019-03-27T18:28:27.694Z,5.97
2019-03-27T18:30:58.857Z,5.57
2019-03-27T18:33:28.340Z,6.60
2019-03-27T18:35:57.870Z,5.77
2019-03-27T18:38:27.289Z,5.67
2019-03-27T18:40:57.314Z,5.73
2019-03-27T18:43:26.735Z,6.07
2019-03-27T18:45:58.517Z,6.37
2019-03-27T18:48:31.907Z,9.33
2019-03-27T18:51:01.501Z,8.53
2019-03-27T18:53:30.912Z,7.77
2019-03-27T18:56:03.370Z,7.20
2019-03-27T18:58:32.841Z,7.00
2019-03-27T19:01:02.977Z,9.43
2019-03-27T19:03:32.979Z,8.00
2019-03-27T19:06:03.035Z,9.43
2019-03-27T19:08:32.664Z,12.23
2019-03-27T19:11:02.085Z,13.00
2019-03-27T19:13:31.599Z,14.73
2019-03-27T19:16:01.124Z,11.70
2019-03-27T19:18:31.613Z,12.63
2019-03-27T19:21:01.055Z,12.80
2019-03-27T19:23:30.623Z,12.73
2019-03-27T19:26:00.148Z,12.43
2019-03-27T19:28:35.375Z,11.23
2019-03-27T19:31:06.443Z,11.67
2019-03-27T19:33:37.444Z,11.30
2019-03-27T19:36:07.045Z,12.53
2019-03-27T19:38:36.545Z,11.50
2019-03-27T19:41:06.041Z,11.50
2019-03-27T19:43:35.561Z,11.07
2019-03-27T19:46:05.063Z,12.13
2019-03-27T19:48:34.600Z,12.43
2019-03-27T19:51:04.159Z,12.97
2019-03-27T19:53:33.820Z,11.93
2019-03-27T19:56:03.266Z,12.90
2019-03-27T19:58:32.748Z,12.83
2019-03-27T20:01:04.991Z,12.70
2019-03-27T20:03:34.846Z,13.37
2019-03-27T20:06:05.910Z,13.10
2019-03-27T20:08:35.500Z,13.50
2019-03-27T20:11:05.074Z,13.17
2019-03-27T20:13:34.520Z,14.77
2019-03-27T20:16:04.126Z,14.70
2019-03-27T20:18:33.649Z,14.43
2019-03-27T20:21:03.248Z,14.33
2019-03-27T20:23:33.009Z,13.40
2019-03-27T20:26:02.531Z,14.27
2019-03-27T20:28:32.096Z,13.63
2019-03-27T20:31:01.615Z,13.97
2019-03-27T20:33:31.119Z,13.07
2019-03-27T20:36:02.956Z,12.43
2019-03-27T20:38:31.930Z,12.10
2019-03-27T20:41:01.505Z,11.47
2019-03-27T20:43:32.292Z,11.27
2019-03-27T20:46:01.766Z,9.70
2019-03-27T20:48:31.480Z,9.93
2019-03-27T20:51:01.002Z,9.87
2019-03-27T20:53:30.503Z,9.37
2019-03-27T20:56:00.015Z,9.37
2019-03-27T20:58:29.475Z,9.17
2019-03-27T21:00:59.089Z,9.07
2019-03-27T21:03:28.585Z,8.73
2019-03-27T21:05:58.184Z,8.90
2019-03-27T21:08:27.640Z,9.40
2019-03-27T21:10:57.180Z,9.20
2019-03-27T21:13:26.609Z,10.10
2019-03-27T21:15:56.142Z,10.03
2019-03-27T21:18:25.566Z,11.37
2019-03-27T21:20:55.022Z,10.80
2019-03-27T21:23:24.437Z,11.20
2019-03-27T21:25:56.893Z,10.87
2019-03-27T21:28:26.437Z,12.03
2019-03-27T21:30:55.911Z,12.13
2019-03-27T21:33:26.989Z,11.90
2019-03-27T21:35:56.435Z,12.47
2019-03-27T21:38:25.922Z,12.47
2019-03-27T21:40:55.373Z,13.43
2019-03-27T21:43:24.980Z,13.20
2019-03-27T21:45:54.490Z,13.93
2019-03-27T21:48:23.965Z,14.03
2019-03-27T21:50:53.418Z,14.20
2019-03-27T21:53:22.890Z,13.37
2019-03-27T21:55:53.342Z,13.67
2019-03-27T21:58:22.868Z,13.17
2019-03-27T22:00:52.420Z,13.77
2019-03-27T22:03:21.922Z,14.73
2019-03-27T22:05:51.372Z,14.97
2019-03-27T22:08:20.910Z,14.57
2019-03-27T22:10:50.542Z,14.60
2019-03-27T22:13:19.991Z,15.07
2019-03-27T22:15:49.472Z,14.40
2019-03-27T22:18:18.984Z,15.27
2019-03-27T22:20:48.472Z,15.47
2019-03-27T22:23:17.919Z,16.50
2019-03-27T22:25:47.458Z,16.03
2019-03-27T22:28:16.914Z,16.37
2019-03-27T22:30:46.457Z,16.37
2019-03-27T22:33:15.903Z,14.70
2019-03-27T22:35:45.443Z,16.33
2019-03-27T22:38:14.898Z,16.17
2019-03-27T22:40:44.445Z,15.67
2019-03-27T22:43:13.905Z,17.43
2019-03-27T22:45:43.371Z,16.70
2019-03-27T22:48:12.826Z,16.13
2019-03-27T22:50:42.367Z,17.20
2019-03-27T22:53:11.829Z,19.30
2019-03-27T22:55:49.657Z,19.00
2019-03-27T22:58:13.094Z,19.17
2019-03-27T23:00:49.217Z,16.60
2019-03-27T23:03:22.207Z,15.90
2019-03-27T23:05:51.813Z,15.23
2019-03-27T23:08:22.342Z,17.97
2019-03-27T23:10:51.937Z,18.57
2019-03-27T23:13:21.406Z,19.20
2019-03-27T23:15:50.850Z,17.37
2019-03-27T23:18:20.361Z,17.33
2019-03-27T23:20:49.907Z,18.57
2019-03-27T23:23:19.350Z,17.40
2019-03-27T23:26:02.228Z,16.33
2019-03-27T23:28:20.097Z,17.40
2019-03-27T23:30:49.640Z,15.60
2019-03-27T23:33:20.334Z,16.27
2019-03-27T23:35:50.100Z,17.33
2019-03-27T23:38:19.639Z,15.70
2019-03-27T23:40:49.113Z,14.83
2019-03-27T23:43:18.698Z,15.37
2019-03-27T23:45:48.235Z,16.27
2019-03-27T23:48:17.782Z,15.00
2019-03-27T23:50:47.260Z,14.33
2019-03-27T23:53:16.821Z,14.90
2019-03-27T23:55:46.294Z,15.87
2019-03-27T23:58:15.744Z,15.90
